createdAt,value
2022-10-16T00:04:06.733Z,6.13
2022-10-16T00:09:33.462Z,5.63
2022-10-16T00:14:57.730Z,6.93
2022-10-16T00:20:23.647Z,5.75
2022-10-16T00:25:58.084Z,5.20
2022-10-16T00:31:23.531Z,5.60
2022-10-16T00:36:49.461Z,5.72
2022-10-16T00:42:20.220Z,5.90
2022-10-16T00:47:50.111Z,5.85
2022-10-16T00:53:17.161Z,6.43
2022-10-16T00:58:42.353Z,6.25
2022-10-16T01:04:06.333Z,7.00
2022-10-16T01:09:39.613Z,5.68
2022-10-16T01:15:12.358Z,5.32
2022-10-16T01:20:43.898Z,4.90
2022-10-16T01:26:29.952Z,5.68
2022-10-16T01:32:01.326Z,5.30
2022-10-16T01:37:35.152Z,6.18
2022-10-16T01:43:05.249Z,5.72
2022-10-16T01:54:01.238Z,5.75
2022-10-16T01:59:32.133Z,6.20
2022-10-16T02:05:04.350Z,5.97
2022-10-16T02:10:32.446Z,6.72
2022-10-16T02:15:57.024Z,5.88
2022-10-16T02:21:27.653Z,5.90
2022-10-16T02:26:59.248Z,6.80
2022-10-16T02:32:29.454Z,7.75
2022-10-16T02:37:56.968Z,7.50
2022-10-16T02:43:21.805Z,7.38
2022-10-16T02:48:47.540Z,7.95
2022-10-16T02:54:12.816Z,6.95
2022-10-16T02:59:36.731Z,7.35
2022-10-16T03:05:02.302Z,7.32
2022-10-16T03:10:28.446Z,8.00
2022-10-16T03:15:54.291Z,9.35
2022-10-16T03:21:18.977Z,7.97
2022-10-16T03:26:44.918Z,8.68
2022-10-16T03:32:10.348Z,9.18
2022-10-16T03:37:34.777Z,8.85
2022-10-16T03:43:01.682Z,9.88
2022-10-16T03:48:29.130Z,9.47
2022-10-16T03:53:54.134Z,10.30
2022-10-16T03:59:20.198Z,9.82
2022-10-16T04:04:44.747Z,8.82
2022-10-16T04:10:11.596Z,8.70
2022-10-16T04:15:37.122Z,10.00
2022-10-16T04:21:04.984Z,11.05
2022-10-16T04:26:29.588Z,10.85
2022-10-16T04:31:55.119Z,8.65
2022-10-16T04:37:18.948Z,8.68
2022-10-16T04:42:43.145Z,9.23
2022-10-16T04:48:08.696Z,7.32
2022-10-16T04:53:33.273Z,7.00
2022-10-16T04:58:57.477Z,7.18
2022-10-16T05:04:27.425Z,7.63
2022-10-16T05:09:51.517Z,7.63
2022-10-16T05:15:16.211Z,7.45
2022-10-16T05:20:41.566Z,7.68
2022-10-16T05:26:05.610Z,9.07
2022-10-16T05:31:30.850Z,8.68
2022-10-16T05:36:56.226Z,8.63
2022-10-16T05:42:21.997Z,10.95
2022-10-16T05:47:46.537Z,13.15
2022-10-16T05:53:12.090Z,10.27
2022-10-16T05:58:38.116Z,9.52
2022-10-16T06:04:01.982Z,7.07
2022-10-16T06:09:28.610Z,5.22
2022-10-16T06:14:53.594Z,6.95
2022-10-16T06:20:17.733Z,4.32
2022-10-16T06:25:46.485Z,5.03
2022-10-16T06:31:12.390Z,4.82
2022-10-16T06:36:37.502Z,5.43
2022-10-16T06:42:03.302Z,6.35
2022-10-16T06:47:34.472Z,5.15
2022-10-16T06:52:59.009Z,5.75
2022-10-16T06:58:25.831Z,6.03
2022-10-16T07:03:54.876Z,6.25
2022-10-16T07:09:19.251Z,4.78
2022-10-16T07:14:45.327Z,4.50
2022-10-16T07:20:12.170Z,4.15
2022-10-16T07:25:37.039Z,4.65
2022-10-16T07:31:06.967Z,4.82
2022-10-16T07:36:33.875Z,5.15
2022-10-16T07:41:59.494Z,4.65
2022-10-16T07:47:25.720Z,3.70
2022-10-16T07:52:54.115Z,3.55
2022-10-16T07:58:18.842Z,3.40
2022-10-16T08:03:46.219Z,5.03
2022-10-16T08:09:11.349Z,5.63
2022-10-16T08:14:35.783Z,4.10
2022-10-16T08:20:02.755Z,4.30
2022-10-16T08:25:28.215Z,4.15
2022-10-16T08:30:53.855Z,3.55
2022-10-16T08:36:20.051Z,4.25
2022-10-16T08:42:11.594Z,4.50
2022-10-16T08:47:46.838Z,5.65
2022-10-16T08:53:18.617Z,4.57
2022-10-16T08:58:43.060Z,4.15
2022-10-16T09:04:52.870Z,2.72
2022-10-16T09:10:32.250Z,4.90
2022-10-16T09:16:09.944Z,3.80
2022-10-16T09:21:38.259Z,2.80
2022-10-16T09:27:04.429Z,2.70
2022-10-16T09:32:30.701Z,2.55
2022-10-16T09:37:57.223Z,2.42
2022-10-16T09:43:31.860Z,2.70
2022-10-16T09:48:59.677Z,3.00
2022-10-16T09:54:24.758Z,2.43
2022-10-16T09:59:52.660Z,2.28
2022-10-16T10:05:23.121Z,1.75
2022-10-16T10:10:51.071Z,2.45
2022-10-16T10:16:25.917Z,1.70
2022-10-16T10:21:52.786Z,2.05
2022-10-16T10:27:20.734Z,2.50
2022-10-16T10:32:55.924Z,1.23
2022-10-16T10:38:32.984Z,1.90
2022-10-16T10:44:09.988Z,2.17
2022-10-16T10:49:50.981Z,2.10
2022-10-16T10:55:24.908Z,2.33
2022-10-16T11:00:58.957Z,2.20
2022-10-16T11:06:28.476Z,2.10
2022-10-16T11:11:58.749Z,2.00
2022-10-16T11:17:27.587Z,2.17
2022-10-16T11:23:00.246Z,1.83
2022-10-16T11:28:31.775Z,2.63
2022-10-16T11:34:04.165Z,1.70
2022-10-16T11:39:32.039Z,2.75
2022-10-16T11:45:02.977Z,2.20
2022-10-16T11:50:33.884Z,2.90
2022-10-16T11:56:00.664Z,3.08
2022-10-16T12:01:33.890Z,2.92
2022-10-16T12:07:07.783Z,2.17
2022-10-16T12:12:41.476Z,2.53
2022-10-16T12:18:05.838Z,3.08
2022-10-16T12:23:30.184Z,2.13
2022-10-16T12:28:56.834Z,3.05
2022-10-16T12:34:25.808Z,3.10
2022-10-16T12:39:51.381Z,2.65
2022-10-16T12:45:26.966Z,2.10
2022-10-16T12:50:50.983Z,2.28
2022-10-16T12:56:26.555Z,2.20
2022-10-16T13:02:17.062Z,2.45
2022-10-16T13:07:54.916Z,2.80
2022-10-16T13:13:34.878Z,2.38
2022-10-16T13:19:17.608Z,2.45
2022-10-16T13:24:56.104Z,2.63
2022-10-16T13:30:28.155Z,2.40
2022-10-16T13:36:00.382Z,2.30
2022-10-16T13:41:24.484Z,2.40
2022-10-16T13:46:48.902Z,2.30
2022-10-16T13:52:20.877Z,2.40
2022-10-16T13:57:45.698Z,3.10
2022-10-16T14:03:17.346Z,2.50
2022-10-16T14:08:47.046Z,2.83
2022-10-16T14:14:13.663Z,2.67
2022-10-16T14:19:38.813Z,2.28
2022-10-16T14:25:18.882Z,2.67
2022-10-16T14:30:53.140Z,2.72
2022-10-16T14:36:20.425Z,2.50
2022-10-16T14:41:49.912Z,2.45
2022-10-16T14:47:23.264Z,2.42
2022-10-16T14:52:48.142Z,3.00
2022-10-16T14:58:18.585Z,3.08
2022-10-16T15:03:43.198Z,3.90
2022-10-16T15:09:08.638Z,3.25
2022-10-16T15:14:34.473Z,6.93
2022-10-16T15:20:00.195Z,5.78
2022-10-16T15:25:33.827Z,6.28
2022-10-16T15:31:01.230Z,4.35
2022-10-16T15:36:28.923Z,5.13
2022-10-16T15:41:54.419Z,3.78
2022-10-16T15:47:20.600Z,4.95
2022-10-16T15:52:45.167Z,6.65
2022-10-16T15:58:10.660Z,8.73
2022-10-16T16:03:36.884Z,8.85
2022-10-16T16:14:28.313Z,7.57
2022-10-16T16:19:54.398Z,7.43
2022-10-16T16:25:18.726Z,10.30
2022-10-16T16:30:43.249Z,10.32
2022-10-16T16:36:15.344Z,8.25
2022-10-16T16:41:40.200Z,6.72
2022-10-16T16:47:05.654Z,5.80
2022-10-16T16:52:32.809Z,5.68
2022-10-16T16:57:58.674Z,8.07
2022-10-16T17:03:24.120Z,5.63
2022-10-16T17:08:50.650Z,4.57
2022-10-16T17:14:16.271Z,6.30
2022-10-16T17:19:42.373Z,4.50
2022-10-16T17:25:09.399Z,4.63
2022-10-16T17:30:35.582Z,4.40
2022-10-16T17:36:03.491Z,4.45
2022-10-16T17:41:29.784Z,4.40
2022-10-16T17:46:55.284Z,4.55
2022-10-16T17:52:20.144Z,4.10
2022-10-16T17:57:46.281Z,3.63
2022-10-16T18:03:11.689Z,4.47
2022-10-16T18:08:36.727Z,4.15
2022-10-16T18:14:03.875Z,3.70
2022-10-16T18:19:28.447Z,3.97
2022-10-16T18:24:52.653Z,3.60
2022-10-16T18:30:18.327Z,3.78
2022-10-16T18:35:44.005Z,4.20
2022-10-16T18:41:08.582Z,4.93
2022-10-16T18:46:34.602Z,4.55
2022-10-16T18:52:00.609Z,4.05
2022-10-16T18:57:30.161Z,3.45
2022-10-16T19:02:56.498Z,3.40
2022-10-16T19:08:20.317Z,3.80
2022-10-16T19:13:47.869Z,3.70
2022-10-16T19:19:18.245Z,3.67
2022-10-16T19:24:45.046Z,3.70
2022-10-16T19:35:41.687Z,4.18
2022-10-16T19:41:07.761Z,4.57
2022-10-16T19:46:33.733Z,4.70
2022-10-16T19:51:59.663Z,4.50
2022-10-16T19:57:27.344Z,5.57
2022-10-16T20:02:51.875Z,4.30
2022-10-16T20:08:17.985Z,4.20
2022-10-16T20:13:42.622Z,4.20
2022-10-16T20:19:08.142Z,4.80
2022-10-16T20:24:34.709Z,3.97
2022-10-16T20:29:59.570Z,4.45
2022-10-16T20:35:24.890Z,4.10
2022-10-16T20:40:51.075Z,4.65
2022-10-16T20:46:21.846Z,5.75
2022-10-16T20:51:49.838Z,5.97
2022-10-16T20:57:16.985Z,5.80
2022-10-16T21:02:41.515Z,6.18
2022-10-16T21:08:05.782Z,6.80
2022-10-16T21:13:31.526Z,5.82
2022-10-16T21:18:56.201Z,6.22
2022-10-16T21:24:20.827Z,6.57
2022-10-16T21:29:49.526Z,6.20
2022-10-16T21:35:13.535Z,7.20
2022-10-16T21:40:37.785Z,5.90
2022-10-16T21:46:03.850Z,5.57
2022-10-16T21:51:29.302Z,5.25
2022-10-16T21:56:53.873Z,4.80
2022-10-16T22:02:19.440Z,5.13
2022-10-16T22:07:43.148Z,5.03
2022-10-16T22:13:08.486Z,4.90
2022-10-16T22:18:35.709Z,4.45
2022-10-16T22:24:00.830Z,4.82
2022-10-16T22:29:26.130Z,4.63
2022-10-16T22:34:52.004Z,4.60
2022-10-16T22:40:16.897Z,3.97
2022-10-16T22:45:41.261Z,4.55
2022-10-16T22:51:08.389Z,4.22
2022-10-16T22:56:33.145Z,5.35
2022-10-16T23:01:59.225Z,4.45
2022-10-16T23:07:25.139Z,4.13
2022-10-16T23:12:49.575Z,4.68
2022-10-16T23:18:14.796Z,5.00
2022-10-16T23:23:43.101Z,5.05
2022-10-16T23:29:07.965Z,5.10
2022-10-16T23:34:32.625Z,4.65
2022-10-16T23:39:58.405Z,4.60
2022-10-16T23:45:22.891Z,5.45
2022-10-16T23:50:47.921Z,5.10
2022-10-16T23:56:15.061Z,5.13
